createdAt,value
2019-04-16T00:02:11.153Z,99.90
2019-04-16T00:04:50.394Z,99.90
2019-04-16T00:07:38.884Z,99.90
2019-04-16T00:10:15.364Z,99.90
2019-04-16T00:12:45.491Z,99.90
2019-04-16T00:15:14.048Z,99.90
2019-04-16T00:17:44.408Z,99.90
2019-04-16T00:20:12.601Z,99.90
2019-04-16T00:22:45.480Z,99.90
2019-04-16T00:25:14.023Z,99.90
2019-04-16T00:27:43.613Z,99.90
2019-04-16T00:30:13.580Z,99.90
2019-04-16T00:32:42.624Z,99.90
2019-04-16T00:35:15.386Z,99.90
2019-04-16T00:37:41.478Z,99.90
2019-04-16T00:40:10.240Z,99.90
2019-04-16T00:42:38.652Z,99.90
2019-04-16T00:45:07.304Z,99.90
2019-04-16T00:47:35.779Z,99.90
2019-04-16T00:50:06.241Z,99.90
2019-04-16T00:52:37.073Z,99.90
2019-04-16T00:55:06.240Z,99.90
2019-04-16T00:57:34.645Z,99.90
2019-04-16T01:00:07.035Z,99.90
2019-04-16T01:02:35.579Z,99.90
2019-04-16T01:05:05.627Z,99.90
2019-04-16T01:07:34.048Z,99.90
2019-04-16T01:10:02.476Z,99.90
2019-04-16T01:12:30.891Z,99.90
2019-04-16T01:15:00.925Z,99.90
2019-04-16T01:17:29.443Z,99.90
2019-04-16T01:19:58.067Z,99.90
2019-04-16T01:22:26.749Z,99.90
2019-04-16T01:24:55.169Z,99.90
2019-04-16T01:27:28.572Z,99.90
2019-04-16T01:29:55.356Z,99.90
2019-04-16T01:32:31.159Z,99.90
2019-04-16T01:35:01.244Z,99.90
2019-04-16T01:37:33.735Z,99.90
2019-04-16T01:40:03.808Z,99.90
2019-04-16T01:42:32.283Z,99.90
2019-04-16T01:45:00.951Z,99.90
2019-04-16T01:47:29.351Z,99.90
2019-04-16T01:49:57.763Z,99.90
2019-04-16T01:52:26.181Z,99.90
2019-04-16T01:54:54.816Z,99.90
2019-04-16T01:57:24.085Z,99.90
2019-04-16T01:59:52.503Z,99.90
2019-04-16T02:02:21.059Z,99.90
2019-04-16T02:04:52.029Z,99.90
2019-04-16T02:07:19.602Z,99.90
2019-04-16T02:09:48.005Z,99.90
2019-04-16T02:12:16.434Z,99.90
2019-04-16T02:14:47.349Z,99.90
2019-04-16T02:17:15.003Z,99.90
2019-04-16T02:19:43.415Z,99.90
2019-04-16T02:22:13.630Z,99.90
2019-04-16T02:24:41.979Z,99.90
2019-04-16T02:27:10.384Z,99.90
2019-04-16T02:29:38.796Z,99.90
2019-04-16T02:32:07.222Z,99.90
2019-04-16T02:34:35.635Z,99.90
2019-04-16T02:37:04.061Z,99.90
2019-04-16T02:39:47.721Z,99.90
2019-04-16T02:42:02.802Z,99.90
2019-04-16T02:44:31.366Z,99.90
2019-04-16T02:47:05.310Z,99.90
2019-04-16T02:49:29.981Z,99.90
2019-04-16T02:52:00.025Z,99.90
2019-04-16T02:54:33.848Z,99.90
2019-04-16T02:57:04.640Z,99.90
2019-04-16T02:59:34.858Z,99.90
2019-04-16T03:02:22.701Z,99.90
2019-04-16T03:04:58.423Z,99.90
2019-04-16T03:07:27.643Z,99.90
2019-04-16T03:10:01.713Z,99.90
2019-04-16T03:12:26.187Z,99.90
2019-04-16T03:14:54.589Z,99.90
2019-04-16T03:17:33.895Z,99.90
2019-04-16T03:20:04.087Z,99.90
2019-04-16T03:22:33.507Z,99.90
2019-04-16T03:25:02.875Z,99.90
2019-04-16T03:27:31.277Z,99.90
2019-04-16T03:30:03.410Z,99.90
2019-04-16T03:32:35.464Z,99.90
2019-04-16T03:34:59.959Z,99.90
2019-04-16T03:37:30.277Z,99.90
2019-04-16T03:39:58.515Z,99.90
2019-04-16T03:42:27.383Z,99.90
2019-04-16T03:44:56.639Z,99.90
2019-04-16T03:47:25.060Z,99.90
2019-04-16T03:49:53.473Z,99.90
2019-04-16T03:52:21.887Z,99.90
2019-04-16T03:54:53.804Z,99.90
2019-04-16T03:57:20.441Z,99.90
2019-04-16T03:59:48.852Z,99.90
2019-04-16T04:02:21.939Z,99.90
2019-04-16T04:04:47.408Z,99.90
2019-04-16T04:07:15.950Z,99.90
2019-04-16T04:09:44.420Z,99.90
2019-04-16T04:12:14.168Z,99.90
2019-04-16T04:14:43.061Z,99.90
2019-04-16T04:17:11.468Z,99.90
2019-04-16T04:19:39.916Z,99.90
2019-04-16T04:22:08.335Z,99.90
2019-04-16T04:24:36.743Z,99.90
2019-04-16T04:27:05.147Z,99.90
2019-04-16T04:29:33.580Z,99.90
2019-04-16T04:32:03.379Z,99.90
2019-04-16T04:34:32.135Z,99.90
2019-04-16T04:37:00.616Z,99.90
2019-04-16T04:39:29.024Z,99.90
2019-04-16T04:42:00.444Z,99.90
2019-04-16T04:44:28.852Z,99.90
2019-04-16T04:46:57.267Z,99.90
2019-04-16T04:49:30.076Z,99.90
2019-04-16T04:51:57.456Z,99.90
2019-04-16T04:54:25.905Z,99.90
2019-04-16T04:56:56.442Z,99.90
2019-04-16T04:59:24.496Z,99.90
2019-04-16T05:01:52.899Z,99.90
2019-04-16T05:04:25.672Z,99.90
2019-04-16T05:06:58.535Z,99.90
2019-04-16T05:09:29.407Z,99.90
2019-04-16T05:11:57.073Z,99.90
2019-04-16T05:14:26.108Z,99.90
2019-04-16T05:16:54.572Z,99.90
2019-04-16T05:19:22.996Z,99.90
2019-04-16T05:21:51.405Z,99.90
2019-04-16T05:24:19.812Z,99.90
2019-04-16T05:26:48.232Z,99.90
2019-04-16T05:29:17.046Z,99.90
2019-04-16T05:31:46.832Z,99.90
2019-04-16T05:34:17.711Z,99.90
2019-04-16T05:36:47.488Z,99.90
2019-04-16T05:39:15.516Z,99.90
2019-04-16T05:41:43.931Z,99.90
2019-04-16T05:44:12.335Z,99.90
2019-04-16T05:46:41.449Z,99.90
2019-04-16T05:49:10.919Z,99.90
2019-04-16T05:51:39.321Z,99.90
2019-04-16T05:54:12.358Z,99.90
2019-04-16T05:56:41.143Z,99.90
2019-04-16T05:59:09.563Z,99.90
2019-04-16T06:01:39.616Z,99.90
2019-04-16T06:04:08.039Z,99.90
2019-04-16T06:06:36.444Z,99.90
2019-04-16T06:09:11.847Z,99.90
2019-04-16T06:11:37.584Z,99.90
2019-04-16T06:14:07.715Z,99.90
2019-04-16T06:16:56.779Z,99.90
2019-04-16T06:19:36.755Z,99.90
2019-04-16T06:22:06.829Z,99.90
2019-04-16T06:24:55.180Z,99.90
2019-04-16T06:27:27.775Z,99.90
2019-04-16T06:30:16.181Z,99.90
2019-04-16T06:32:46.239Z,99.90
2019-04-16T06:35:42.920Z,99.90
2019-04-16T06:38:10.040Z,99.90
2019-04-16T06:40:45.846Z,99.90
2019-04-16T06:43:25.239Z,99.90
2019-04-16T06:45:53.460Z,99.90
2019-04-16T06:48:23.514Z,99.90
2019-04-16T06:50:59.556Z,99.90
2019-04-16T06:53:32.173Z,99.90
2019-04-16T06:56:08.679Z,99.90
2019-04-16T06:58:50.747Z,99.90
2019-04-16T07:01:13.878Z,99.90
2019-04-16T07:03:46.688Z,99.90
2019-04-16T07:06:22.664Z,99.90
2019-04-16T07:09:01.838Z,99.90
2019-04-16T07:11:31.895Z,99.90
2019-04-16T07:14:00.327Z,99.90
2019-04-16T07:16:29.158Z,99.90
2019-04-16T07:18:57.716Z,99.90
2019-04-16T07:21:26.139Z,99.90
2019-04-16T07:23:58.148Z,99.90
2019-04-16T07:26:24.704Z,99.90
2019-04-16T07:28:58.975Z,99.90
2019-04-16T07:31:33.498Z,99.90
2019-04-16T07:34:17.360Z,99.90
2019-04-16T07:37:03.992Z,99.90
2019-04-16T07:39:42.895Z,99.90
2019-04-16T07:42:20.941Z,99.90
2019-04-16T07:45:01.057Z,99.90
2019-04-16T07:47:33.970Z,99.90
2019-04-16T07:50:04.033Z,99.90
2019-04-16T07:52:38.981Z,99.90
2019-04-16T07:55:26.254Z,99.90
2019-04-16T07:57:53.783Z,99.90
2019-04-16T08:00:22.205Z,99.90
2019-04-16T08:02:53.434Z,99.90
2019-04-16T08:05:20.780Z,99.90
2019-04-16T08:07:49.720Z,99.90
2019-04-16T08:10:19.335Z,99.90
2019-04-16T08:12:49.395Z,99.90
2019-04-16T08:15:17.808Z,99.90
2019-04-16T08:17:46.217Z,99.90
2019-04-16T08:20:19.768Z,99.90
2019-04-16T08:22:47.572Z,99.90
2019-04-16T08:25:16.615Z,99.90
2019-04-16T08:27:47.157Z,99.90
2019-04-16T08:30:15.233Z,99.90
2019-04-16T08:32:45.781Z,99.90
2019-04-16T08:35:13.847Z,99.90
2019-04-16T08:37:48.904Z,99.90
2019-04-16T08:40:13.180Z,99.90
2019-04-16T08:42:44.777Z,99.90
2019-04-16T08:45:12.353Z,99.90
2019-04-16T08:47:44.574Z,99.90
2019-04-16T08:50:12.164Z,99.90
2019-04-16T08:52:41.733Z,99.90
2019-04-16T08:55:10.968Z,99.90
2019-04-16T08:57:39.380Z,99.90
2019-04-16T09:00:14.125Z,99.90
2019-04-16T09:02:40.964Z,99.90
2019-04-16T09:05:11.399Z,99.90
2019-04-16T09:07:39.780Z,99.90
2019-04-16T09:10:18.105Z,99.90
2019-04-16T09:12:45.671Z,99.90
2019-04-16T09:15:13.761Z,99.90
2019-04-16T09:17:43.687Z,99.90
2019-04-16T09:20:16.626Z,99.90
2019-04-16T09:22:49.461Z,99.90
2019-04-16T09:25:33.256Z,99.90
2019-04-16T09:28:09.925Z,99.90
2019-04-16T09:30:54.428Z,99.90
2019-04-16T09:33:24.498Z,99.90
2019-04-16T09:35:54.547Z,99.90
2019-04-16T09:38:30.556Z,99.90
2019-04-16T09:41:00.603Z,99.90
2019-04-16T09:43:33.343Z,99.90
2019-04-16T09:46:10.122Z,99.90
2019-04-16T09:48:34.766Z,98.30
2019-04-16T09:51:02.037Z,97.70
2019-04-16T09:53:34.185Z,98.70
2019-04-16T09:56:02.231Z,98.20
2019-04-16T09:58:30.643Z,97.90
2019-04-16T10:01:03.644Z,94.50
2019-04-16T10:03:36.354Z,93.00
2019-04-16T10:06:05.924Z,92.20
2019-04-16T10:08:34.547Z,89.70
2019-04-16T10:11:05.967Z,90.50
2019-04-16T10:13:36.038Z,92.40
2019-04-16T10:16:03.596Z,91.30
2019-04-16T10:18:35.262Z,90.60
2019-04-16T10:21:02.349Z,85.20
2019-04-16T10:23:41.247Z,85.10
2019-04-16T10:26:09.938Z,82.70
2019-04-16T10:28:40.020Z,82.90
2019-04-16T10:31:10.304Z,80.10
2019-04-16T10:33:38.767Z,78.80
2019-04-16T10:36:07.269Z,76.40
2019-04-16T10:38:55.735Z,77.20
2019-04-16T10:41:25.790Z,75.90
2019-04-16T10:43:58.567Z,71.00
2019-04-16T10:46:45.178Z,74.70
2019-04-16T10:49:18.265Z,74.50
2019-04-16T10:51:48.325Z,77.00
2019-04-16T10:54:18.436Z,76.00
2019-04-16T10:57:06.368Z,71.30
2019-04-16T10:59:42.012Z,70.40
2019-04-16T11:02:12.184Z,69.80
2019-04-16T11:05:02.158Z,69.30
2019-04-16T11:07:34.981Z,68.10
2019-04-16T11:10:05.669Z,67.30
2019-04-16T11:12:34.463Z,64.00
2019-04-16T11:15:03.067Z,67.50
2019-04-16T11:17:32.607Z,66.30
2019-04-16T11:20:01.086Z,64.80
2019-04-16T11:22:29.559Z,63.90
2019-04-16T11:24:58.103Z,64.60
2019-04-16T11:27:26.507Z,62.50
2019-04-16T11:29:54.986Z,67.70
2019-04-16T11:32:25.153Z,64.80
2019-04-16T11:34:53.717Z,61.60
2019-04-16T11:37:22.159Z,61.90
2019-04-16T11:39:50.697Z,60.80
2019-04-16T11:42:19.109Z,61.90
2019-04-16T11:44:50.271Z,61.30
2019-04-16T11:47:17.805Z,60.40
2019-04-16T11:49:46.345Z,63.20
2019-04-16T11:52:14.785Z,61.10
2019-04-16T11:54:46.814Z,61.40
2019-04-16T11:57:13.951Z,61.50
2019-04-16T11:59:42.500Z,62.00
2019-04-16T12:02:12.570Z,64.70
2019-04-16T12:04:45.085Z,63.50
2019-04-16T12:07:21.192Z,64.00
2019-04-16T12:10:00.469Z,62.70
2019-04-16T12:12:33.002Z,61.30
2019-04-16T12:15:08.754Z,60.60
2019-04-16T12:17:50.649Z,61.60
2019-04-16T12:20:20.726Z,59.60
2019-04-16T12:23:02.977Z,59.30
2019-04-16T12:25:33.037Z,59.80
2019-04-16T12:28:11.424Z,59.00
2019-04-16T12:30:43.129Z,61.30
2019-04-16T12:33:21.854Z,59.10
2019-04-16T12:35:51.928Z,59.80
2019-04-16T12:38:25.225Z,60.00
2019-04-16T12:40:55.366Z,59.20
2019-04-16T12:43:29.877Z,64.50
2019-04-16T12:46:02.797Z,59.60
2019-04-16T12:48:49.341Z,58.80
2019-04-16T12:51:22.126Z,57.90
2019-04-16T12:54:03.971Z,57.40
2019-04-16T12:56:50.457Z,56.90
2019-04-16T12:59:22.936Z,57.10
2019-04-16T13:02:12.209Z,57.10
2019-04-16T13:04:45.739Z,56.90
2019-04-16T13:07:15.760Z,58.80
2019-04-16T13:09:45.856Z,60.00
2019-04-16T13:12:21.760Z,59.40
2019-04-16T13:15:08.432Z,57.10
2019-04-16T13:17:40.975Z,59.20
2019-04-16T13:20:17.324Z,57.90
2019-04-16T13:22:47.372Z,57.90
2019-04-16T13:25:32.409Z,58.70
2019-04-16T13:28:00.830Z,57.70
2019-04-16T13:30:29.267Z,57.00
2019-04-16T13:32:57.679Z,57.30
2019-04-16T13:35:26.154Z,57.80
2019-04-16T13:37:54.599Z,57.60
2019-04-16T13:40:23.355Z,57.00
2019-04-16T13:42:51.795Z,57.30
2019-04-16T13:45:27.257Z,57.70
2019-04-16T13:47:56.357Z,57.20
2019-04-16T13:50:29.412Z,55.80
2019-04-16T13:52:59.476Z,56.40
2019-04-16T13:55:49.336Z,57.90
2019-04-16T13:58:17.242Z,57.20
2019-04-16T14:00:47.336Z,56.40
2019-04-16T14:03:17.393Z,57.40
2019-04-16T14:05:45.804Z,55.40
2019-04-16T14:08:14.219Z,56.40
2019-04-16T14:10:43.316Z,56.00
2019-04-16T14:13:13.606Z,55.90
2019-04-16T14:15:44.795Z,55.60
2019-04-16T14:18:12.671Z,55.80
2019-04-16T14:20:41.484Z,57.00
2019-04-16T14:23:10.135Z,57.40
2019-04-16T14:25:38.665Z,58.00
2019-04-16T14:28:07.109Z,57.70
2019-04-16T14:30:39.589Z,57.30
2019-04-16T14:33:07.832Z,57.70
2019-04-16T14:35:39.955Z,57.00
2019-04-16T14:38:06.611Z,56.00
2019-04-16T14:40:35.093Z,56.60
2019-04-16T14:43:03.515Z,56.80
2019-04-16T14:45:50.161Z,57.10
2019-04-16T14:48:07.612Z,56.60
2019-04-16T14:50:34.438Z,56.40
2019-04-16T14:53:02.958Z,56.40
2019-04-16T14:55:35.987Z,55.30
2019-04-16T14:58:09.013Z,54.90
2019-04-16T15:00:55.595Z,55.80
2019-04-16T15:03:43.417Z,54.70
2019-04-16T15:06:17.100Z,56.00
2019-04-16T15:09:03.748Z,54.60
2019-04-16T15:11:39.905Z,54.40
2019-04-16T15:14:23.432Z,54.40
2019-04-16T15:16:53.951Z,54.10
2019-04-16T15:19:24.034Z,53.80
2019-04-16T15:22:14.142Z,55.00
2019-04-16T15:24:58.591Z,55.00
2019-04-16T15:27:45.132Z,53.80
2019-04-16T15:30:28.359Z,54.80
2019-04-16T15:32:56.696Z,55.00
2019-04-16T15:35:29.880Z,54.60
2019-04-16T15:38:00.241Z,54.70
2019-04-16T15:40:33.348Z,54.30
2019-04-16T15:43:03.409Z,55.00
2019-04-16T15:45:33.473Z,55.20
2019-04-16T15:48:06.505Z,54.90
2019-04-16T15:50:51.665Z,55.00
2019-04-16T15:53:30.727Z,54.80
2019-04-16T15:56:00.795Z,55.20
2019-04-16T15:58:36.572Z,55.30
2019-04-16T16:01:06.768Z,54.90
2019-04-16T16:03:39.711Z,55.40
2019-04-16T16:06:12.740Z,55.70
2019-04-16T16:08:42.919Z,55.40
2019-04-16T16:11:17.189Z,55.30
2019-04-16T16:13:46.073Z,55.40
2019-04-16T16:16:18.001Z,55.20
2019-04-16T16:18:44.699Z,54.70
2019-04-16T16:21:13.155Z,54.50
2019-04-16T16:23:41.558Z,55.00
2019-04-16T16:26:10.043Z,54.40
2019-04-16T16:28:38.497Z,55.20
2019-04-16T16:31:06.905Z,54.70
2019-04-16T16:33:35.333Z,54.60
2019-04-16T16:36:03.746Z,54.50
2019-04-16T16:38:32.163Z,56.00
2019-04-16T16:41:00.775Z,56.80
2019-04-16T16:43:29.216Z,56.60
2019-04-16T16:45:59.279Z,56.70
2019-04-16T16:48:28.677Z,57.10
2019-04-16T16:50:57.286Z,57.90
2019-04-16T16:53:35.967Z,57.20
2019-04-16T16:56:06.092Z,57.40
2019-04-16T16:58:42.165Z,58.20
2019-04-16T17:01:33.582Z,58.20
2019-04-16T17:04:00.327Z,57.90
2019-04-16T17:06:30.276Z,58.50
2019-04-16T17:08:58.797Z,58.80
2019-04-16T17:11:27.456Z,59.00
2019-04-16T17:14:01.180Z,59.50
2019-04-16T17:16:27.959Z,59.60
2019-04-16T17:18:56.375Z,60.10
2019-04-16T17:21:24.795Z,60.80
2019-04-16T17:23:53.788Z,61.20
2019-04-16T17:26:22.417Z,61.70
2019-04-16T17:28:50.823Z,62.20
2019-04-16T17:31:19.253Z,62.60
2019-04-16T17:33:47.702Z,63.20
2019-04-16T17:36:16.115Z,63.50
2019-04-16T17:38:44.713Z,64.20
2019-04-16T17:41:23.338Z,64.80
2019-04-16T17:44:00.347Z,65.60
2019-04-16T17:46:31.088Z,66.10
2019-04-16T17:49:01.145Z,66.50
2019-04-16T17:51:45.836Z,66.90
2019-04-16T17:54:32.492Z,67.60
2019-04-16T17:57:02.559Z,68.20
2019-04-16T17:59:48.951Z,69.30
2019-04-16T18:02:25.042Z,69.70
2019-04-16T18:05:05.707Z,70.00
2019-04-16T18:07:38.477Z,70.50
2019-04-16T18:10:15.040Z,71.80
2019-04-16T18:12:57.155Z,72.40
2019-04-16T18:15:30.065Z,74.80
2019-04-16T18:18:01.597Z,76.00
2019-04-16T18:20:35.052Z,80.80
2019-04-16T18:23:11.092Z,82.00
2019-04-16T18:25:55.448Z,80.00
2019-04-16T18:28:21.515Z,80.10
2019-04-16T18:30:51.650Z,80.70
2019-04-16T18:33:27.295Z,81.40
2019-04-16T18:36:01.037Z,83.60
2019-04-16T18:38:45.455Z,85.10
2019-04-16T18:41:18.712Z,87.00
2019-04-16T18:44:04.949Z,89.80
2019-04-16T18:46:38.095Z,90.30
2019-04-16T18:49:14.278Z,89.10
2019-04-16T18:51:44.302Z,90.80
2019-04-16T18:54:15.141Z,93.90
2019-04-16T18:56:42.848Z,95.50
2019-04-16T18:59:11.259Z,96.60
2019-04-16T19:01:41.323Z,97.20
2019-04-16T19:04:09.751Z,98.90
2019-04-16T19:06:38.160Z,99.00
2019-04-16T19:09:07.323Z,99.70
2019-04-16T19:11:35.824Z,99.90
2019-04-16T19:14:04.371Z,99.90
2019-04-16T19:16:32.893Z,99.90
2019-04-16T19:19:01.319Z,99.90
2019-04-16T19:21:29.747Z,99.90
2019-04-16T19:23:58.546Z,99.90
2019-04-16T19:26:30.090Z,99.90
2019-04-16T19:28:57.319Z,99.90
2019-04-16T19:31:25.728Z,99.90
2019-04-16T19:33:54.393Z,99.90
2019-04-16T19:36:27.255Z,99.90
2019-04-16T19:38:53.019Z,99.90
2019-04-16T19:41:24.386Z,99.90
2019-04-16T19:43:51.592Z,99.90
2019-04-16T19:46:20.016Z,99.90
2019-04-16T19:48:48.428Z,99.90
2019-04-16T19:51:19.567Z,99.90
2019-04-16T19:53:47.744Z,99.90
2019-04-16T19:56:18.661Z,99.90
2019-04-16T19:58:48.108Z,99.90
2019-04-16T20:01:16.857Z,99.90
2019-04-16T20:03:45.261Z,99.90
2019-04-16T20:06:13.683Z,99.90
2019-04-16T20:08:42.103Z,99.90
2019-04-16T20:11:12.163Z,99.90
2019-04-16T20:13:40.622Z,99.90
2019-04-16T20:16:09.086Z,99.90
2019-04-16T20:18:50.301Z,99.90
2019-04-16T20:21:07.630Z,99.90
2019-04-16T20:23:36.049Z,99.90
2019-04-16T20:26:04.531Z,99.90
2019-04-16T20:28:32.958Z,99.90
2019-04-16T20:31:04.194Z,99.90
2019-04-16T20:33:31.604Z,99.90
2019-04-16T20:36:00.088Z,99.90
2019-04-16T20:38:29.318Z,99.90
2019-04-16T20:40:58.541Z,99.90
2019-04-16T20:43:26.955Z,99.90
2019-04-16T20:45:55.741Z,99.90
2019-04-16T20:48:24.171Z,99.90
2019-04-16T20:50:54.124Z,99.90
2019-04-16T20:53:22.831Z,99.90
2019-04-16T20:55:51.247Z,99.90
2019-04-16T20:58:19.664Z,99.90
2019-04-16T21:00:49.725Z,99.90
2019-04-16T21:03:22.147Z,99.90
2019-04-16T21:05:57.913Z,99.90
2019-04-16T21:08:24.212Z,99.90
2019-04-16T21:10:48.559Z,99.90
2019-04-16T21:13:17.028Z,99.90
2019-04-16T21:15:45.454Z,99.90
2019-04-16T21:18:13.860Z,99.90
2019-04-16T21:20:42.291Z,99.90
2019-04-16T21:23:10.715Z,99.90
2019-04-16T21:25:39.142Z,99.90
2019-04-16T21:28:09.183Z,99.90
2019-04-16T21:30:42.860Z,99.90
2019-04-16T21:33:09.828Z,99.90
2019-04-16T21:35:45.604Z,99.90
2019-04-16T21:38:21.119Z,99.90
2019-04-16T21:40:49.542Z,99.90
2019-04-16T21:43:17.959Z,99.90
2019-04-16T21:45:48.276Z,99.90
2019-04-16T21:48:16.514Z,99.90
2019-04-16T21:50:47.598Z,99.90
2019-04-16T21:53:15.082Z,99.90
2019-04-16T21:55:43.499Z,99.90
2019-04-16T21:58:14.603Z,99.90
2019-04-16T22:00:43.770Z,99.90
2019-04-16T22:03:16.295Z,99.90
2019-04-16T22:05:48.067Z,99.90
2019-04-16T22:08:14.852Z,99.90
2019-04-16T22:10:46.462Z,99.90
2019-04-16T22:13:13.395Z,99.90
2019-04-16T22:15:41.812Z,99.90
2019-04-16T22:18:10.230Z,99.90
2019-04-16T22:20:38.644Z,99.90
2019-04-16T22:23:07.063Z,99.90
2019-04-16T22:25:35.654Z,99.90
2019-04-16T22:28:04.249Z,99.90
2019-04-16T22:30:32.687Z,99.90
2019-04-16T22:33:05.219Z,99.90
2019-04-16T22:35:31.914Z,99.90
2019-04-16T22:38:00.730Z,99.90
2019-04-16T22:40:45.852Z,99.90
2019-04-16T22:43:32.577Z,99.90
2019-04-16T22:46:11.923Z,99.90
2019-04-16T22:48:41.985Z,99.90
2019-04-16T22:51:11.651Z,99.90
2019-04-16T22:53:40.195Z,99.90
2019-04-16T22:56:08.603Z,99.90
2019-04-16T22:58:50.019Z,99.90
2019-04-16T23:01:22.911Z,99.90
2019-04-16T23:03:53.478Z,99.90
2019-04-16T23:06:21.451Z,99.90
2019-04-16T23:08:49.872Z,99.90
2019-04-16T23:11:23.328Z,99.90
2019-04-16T23:13:48.424Z,99.90
2019-04-16T23:16:16.915Z,99.90
2019-04-16T23:18:48.782Z,99.90
2019-04-16T23:21:15.458Z,99.90
2019-04-16T23:23:43.932Z,99.90
2019-04-16T23:26:12.338Z,99.90
2019-04-16T23:28:42.441Z,99.90
2019-04-16T23:31:10.883Z,99.90
2019-04-16T23:33:39.290Z,99.90
2019-04-16T23:36:07.777Z,99.90
2019-04-16T23:38:36.183Z,99.90
2019-04-16T23:41:04.961Z,99.90
2019-04-16T23:43:37.804Z,99.90
2019-04-16T23:46:26.106Z,99.90
2019-04-16T23:49:02.207Z,99.90
2019-04-16T23:51:35.039Z,99.90
2019-04-16T23:54:20.007Z,99.90
2019-04-16T23:56:55.795Z,99.90
2019-04-16T23:59:28.508Z,99.90
